createdAt,value
2023-04-20T00:00:36.785Z,59.54
2023-04-20T00:03:07.412Z,59.30
2023-04-20T00:05:35.452Z,59.54
2023-04-20T00:08:03.418Z,59.84
2023-04-20T00:10:31.184Z,59.86
2023-04-20T00:12:58.870Z,59.82
2023-04-20T00:15:26.524Z,60.13
2023-04-20T00:17:54.276Z,60.19
2023-04-20T00:20:23.456Z,60.01
2023-04-20T00:22:51.246Z,60.00
2023-04-20T00:25:19.090Z,60.03
2023-04-20T00:27:46.875Z,60.30
2023-04-20T00:30:15.541Z,60.18
2023-04-20T00:32:43.240Z,60.52
2023-04-20T00:35:11.295Z,60.65
2023-04-20T00:37:40.426Z,60.73
2023-04-20T00:40:09.712Z,60.76
2023-04-20T00:42:40.585Z,60.94
2023-04-20T00:45:09.491Z,60.70
2023-04-20T00:47:37.270Z,60.65
2023-04-20T00:50:05.650Z,60.67
2023-04-20T00:52:33.705Z,60.25
2023-04-20T00:55:03.419Z,60.85
2023-04-20T00:57:32.134Z,60.86
2023-04-20T00:59:59.878Z,60.78
2023-04-20T01:02:27.844Z,60.95
2023-04-20T01:04:56.340Z,61.04
2023-04-20T01:07:24.055Z,61.16
2023-04-20T01:09:51.677Z,61.28
2023-04-20T01:12:20.817Z,61.58
2023-04-20T01:14:48.592Z,61.88
2023-04-20T01:17:17.755Z,61.92
2023-04-20T01:19:45.785Z,61.79
2023-04-20T01:22:17.516Z,61.78
2023-04-20T01:24:45.525Z,61.84
2023-04-20T01:27:13.570Z,61.89
2023-04-20T01:29:41.509Z,61.89
2023-04-20T01:32:09.281Z,61.89
2023-04-20T01:34:37.020Z,62.00
2023-04-20T01:37:08.140Z,61.91
2023-04-20T01:39:38.776Z,62.09
2023-04-20T01:42:06.901Z,62.24
2023-04-20T01:44:34.686Z,62.20
2023-04-20T01:47:02.401Z,62.70
2023-04-20T01:49:30.182Z,62.62
2023-04-20T01:51:57.873Z,62.91
2023-04-20T01:54:25.607Z,63.08
2023-04-20T01:56:54.650Z,63.19
2023-04-20T01:59:22.356Z,63.40
2023-04-20T02:01:50.084Z,63.78
2023-04-20T02:04:18.146Z,64.10
2023-04-20T02:06:46.018Z,64.44
2023-04-20T02:09:13.735Z,64.33
2023-04-20T02:11:41.417Z,64.42
2023-04-20T02:14:10.542Z,64.39
2023-04-20T02:16:38.627Z,64.25
2023-04-20T02:19:06.856Z,64.47
2023-04-20T02:21:34.525Z,64.72
2023-04-20T02:24:02.183Z,64.93
2023-04-20T02:26:29.900Z,65.08
2023-04-20T02:28:57.587Z,65.12
2023-04-20T02:31:26.743Z,65.49
2023-04-20T02:33:54.459Z,65.30
2023-04-20T02:36:22.216Z,65.35
2023-04-20T02:38:50.001Z,65.32
2023-04-20T02:41:17.770Z,65.29
2023-04-20T02:43:45.491Z,65.35
2023-04-20T02:46:13.259Z,65.55
2023-04-20T02:48:42.904Z,65.53
2023-04-20T02:51:10.622Z,65.67
2023-04-20T02:53:38.499Z,66.03
2023-04-20T02:56:06.552Z,66.17
2023-04-20T02:58:34.349Z,66.16
2023-04-20T03:01:02.570Z,66.62
2023-04-20T03:03:30.643Z,66.77
2023-04-20T03:05:59.985Z,67.17
2023-04-20T03:08:27.673Z,67.33
2023-04-20T03:10:55.325Z,67.22
2023-04-20T03:13:23.006Z,67.11
2023-04-20T03:15:50.683Z,67.08
2023-04-20T03:18:18.410Z,67.31
2023-04-20T03:20:46.171Z,67.74
2023-04-20T03:23:15.256Z,67.70
2023-04-20T03:25:43.668Z,67.67
2023-04-20T03:28:11.367Z,67.21
2023-04-20T03:30:39.139Z,67.34
2023-04-20T03:33:06.879Z,66.71
2023-04-20T03:35:34.608Z,66.88
2023-04-20T03:38:02.382Z,66.84
2023-04-20T03:40:31.426Z,66.75
2023-04-20T03:42:59.094Z,66.69
2023-04-20T03:45:26.808Z,66.48
2023-04-20T03:47:54.733Z,66.51
2023-04-20T03:50:22.510Z,66.82
2023-04-20T03:52:50.323Z,67.08
2023-04-20T03:55:18.113Z,67.34
2023-04-20T03:57:47.170Z,67.63
2023-04-20T04:00:16.470Z,67.78
2023-04-20T04:02:44.395Z,67.98
2023-04-20T04:05:12.252Z,68.16
2023-04-20T04:07:40.008Z,68.51
2023-04-20T04:10:08.823Z,68.45
2023-04-20T04:12:36.499Z,68.31
2023-04-20T04:15:06.523Z,68.20
2023-04-20T04:17:34.263Z,67.82
2023-04-20T04:20:01.971Z,67.81
2023-04-20T04:22:30.513Z,67.74
2023-04-20T04:24:58.325Z,68.05
2023-04-20T04:27:26.010Z,67.93
2023-04-20T04:29:54.374Z,68.05
2023-04-20T04:32:24.380Z,67.84
2023-04-20T04:34:53.021Z,67.67
2023-04-20T04:37:20.902Z,67.51
2023-04-20T04:39:48.800Z,67.60
2023-04-20T04:42:16.650Z,67.52
2023-04-20T04:44:45.603Z,67.85
2023-04-20T04:47:14.260Z,67.66
2023-04-20T04:49:43.359Z,67.81
2023-04-20T04:52:11.140Z,67.75
2023-04-20T04:54:38.983Z,67.63
2023-04-20T04:57:06.816Z,67.53
2023-04-20T04:59:34.536Z,67.34
2023-04-20T05:02:02.252Z,67.24
2023-04-20T05:04:30.269Z,66.97
2023-04-20T05:06:59.491Z,66.66
2023-04-20T05:09:33.273Z,66.69
2023-04-20T05:12:01.494Z,66.72
2023-04-20T05:14:29.153Z,67.04
2023-04-20T05:16:56.773Z,67.19
2023-04-20T05:19:24.488Z,67.19
2023-04-20T05:21:52.342Z,67.38
2023-04-20T05:24:21.438Z,67.21
2023-04-20T05:26:49.108Z,67.51
2023-04-20T05:29:17.761Z,67.59
2023-04-20T05:31:46.027Z,67.63
2023-04-20T05:34:13.800Z,67.67
2023-04-20T05:36:41.580Z,68.00
2023-04-20T05:39:10.519Z,67.86
2023-04-20T05:41:39.848Z,68.15
2023-04-20T05:44:07.536Z,68.33
2023-04-20T05:46:35.266Z,68.43
2023-04-20T05:49:03.022Z,68.56
2023-04-20T05:51:33.912Z,68.73
2023-04-20T05:54:01.686Z,69.05
2023-04-20T05:56:29.488Z,68.99
2023-04-20T05:58:59.345Z,69.05
2023-04-20T06:01:27.065Z,69.33
2023-04-20T06:03:54.909Z,69.01
2023-04-20T06:06:22.848Z,69.02
2023-04-20T06:08:50.984Z,69.05
2023-04-20T06:11:18.745Z,69.06
2023-04-20T06:13:46.571Z,69.35
2023-04-20T06:16:15.823Z,69.54
2023-04-20T06:18:43.556Z,69.47
2023-04-20T06:21:11.742Z,69.78
2023-04-20T06:23:39.528Z,69.95
2023-04-20T06:26:08.895Z,70.60
2023-04-20T06:28:37.581Z,70.85
2023-04-20T06:31:05.554Z,70.95
2023-04-20T06:33:35.653Z,70.78
2023-04-20T06:36:03.387Z,70.73
2023-04-20T06:38:31.409Z,71.16
2023-04-20T06:41:02.052Z,71.25
2023-04-20T06:43:30.289Z,71.36
2023-04-20T06:45:58.083Z,70.84
2023-04-20T06:48:32.063Z,70.88
2023-04-20T06:51:02.292Z,70.92
2023-04-20T06:53:30.107Z,70.96
2023-04-20T06:55:58.348Z,70.51
2023-04-20T06:58:26.024Z,70.14
2023-04-20T07:00:53.782Z,69.84
2023-04-20T07:03:21.808Z,69.70
2023-04-20T07:05:49.621Z,70.17
2023-04-20T07:08:19.039Z,69.92
2023-04-20T07:10:46.802Z,69.88
2023-04-20T07:13:14.611Z,69.58
2023-04-20T07:15:43.609Z,69.49
2023-04-20T07:18:11.334Z,69.36
2023-04-20T07:20:39.160Z,69.05
2023-04-20T07:23:06.958Z,68.91
2023-04-20T07:25:36.165Z,67.98
2023-04-20T07:28:04.004Z,68.19
2023-04-20T07:30:32.263Z,68.08
2023-04-20T07:33:00.142Z,68.08
2023-04-20T07:35:27.913Z,67.64
2023-04-20T07:37:55.837Z,67.19
2023-04-20T07:40:23.819Z,67.15
2023-04-20T07:42:53.038Z,66.76
2023-04-20T07:45:21.904Z,66.74
2023-04-20T07:47:51.714Z,66.13
2023-04-20T07:50:19.551Z,66.00
2023-04-20T07:52:47.570Z,65.54
2023-04-20T07:55:17.315Z,65.14
2023-04-20T07:57:45.320Z,64.39
2023-04-20T08:00:16.050Z,63.57
2023-04-20T08:02:44.040Z,63.26
2023-04-20T08:05:12.427Z,62.97
2023-04-20T08:07:40.768Z,63.09
2023-04-20T08:10:10.594Z,62.68
2023-04-20T08:12:40.741Z,62.43
2023-04-20T08:15:10.118Z,62.31
2023-04-20T08:17:39.324Z,61.70
2023-04-20T08:20:10.792Z,62.03
2023-04-20T08:22:39.561Z,61.50
2023-04-20T08:25:09.272Z,60.68
2023-04-20T08:27:37.059Z,60.40
2023-04-20T08:30:05.561Z,61.48
2023-04-20T08:32:33.504Z,61.60
2023-04-20T08:35:02.846Z,61.74
2023-04-20T08:37:32.660Z,60.34
2023-04-20T08:40:00.918Z,59.83
2023-04-20T08:42:28.699Z,58.49
2023-04-20T08:44:56.518Z,57.63
2023-04-20T08:47:25.228Z,57.09
2023-04-20T08:49:55.705Z,56.45
2023-04-20T08:52:24.829Z,56.75
2023-04-20T08:54:56.948Z,55.86
2023-04-20T08:57:25.857Z,55.46
2023-04-20T08:59:53.776Z,54.97
2023-04-20T09:02:22.014Z,55.08
2023-04-20T09:04:50.138Z,55.35
2023-04-20T09:07:19.280Z,55.22
2023-04-20T09:09:58.950Z,54.28
2023-04-20T09:12:27.951Z,52.45
2023-04-20T09:14:55.991Z,51.68
2023-04-20T09:17:33.906Z,51.35
2023-04-20T09:20:02.599Z,51.10
2023-04-20T09:22:32.091Z,49.72
2023-04-20T09:25:01.631Z,49.96
2023-04-20T09:27:29.327Z,48.63
2023-04-20T09:30:01.193Z,48.42
2023-04-20T09:32:29.592Z,48.39
2023-04-20T09:34:57.684Z,48.76
2023-04-20T09:37:25.722Z,48.06
2023-04-20T09:40:00.248Z,48.44
2023-04-20T09:42:30.530Z,48.55
2023-04-20T09:44:59.103Z,48.50
2023-04-20T09:47:27.370Z,48.23
2023-04-20T09:49:56.369Z,47.85
2023-04-20T09:52:27.377Z,47.61
2023-04-20T09:54:56.136Z,46.39
2023-04-20T09:57:26.093Z,45.57
2023-04-20T09:59:56.483Z,45.20
2023-04-20T10:02:24.362Z,45.18
2023-04-20T10:04:56.318Z,46.56
2023-04-20T10:07:25.976Z,46.02
2023-04-20T10:10:05.008Z,46.06
2023-04-20T10:12:33.244Z,45.86
2023-04-20T10:15:02.326Z,45.15
2023-04-20T10:17:34.385Z,45.91
2023-04-20T10:20:02.226Z,45.97
2023-04-20T10:22:33.085Z,45.56
2023-04-20T10:25:01.254Z,45.41
2023-04-20T10:27:32.126Z,45.37
2023-04-20T10:30:11.737Z,44.88
2023-04-20T10:32:39.454Z,44.08
2023-04-20T10:35:08.836Z,44.59
2023-04-20T10:37:37.252Z,43.84
2023-04-20T10:40:07.740Z,43.98
2023-04-20T10:42:43.461Z,44.43
2023-04-20T10:45:13.115Z,43.35
2023-04-20T10:47:41.713Z,42.59
2023-04-20T10:50:11.159Z,42.88
2023-04-20T10:52:40.234Z,43.50
2023-04-20T10:55:19.307Z,42.82
2023-04-20T10:57:46.996Z,42.05
2023-04-20T11:00:18.765Z,43.01
2023-04-20T11:02:51.179Z,42.28
2023-04-20T11:05:19.768Z,41.92
2023-04-20T11:07:54.589Z,40.34
2023-04-20T11:10:23.866Z,40.25
2023-04-20T11:12:52.086Z,39.78
2023-04-20T11:15:32.257Z,40.75
2023-04-20T11:18:07.950Z,41.99
2023-04-20T11:20:36.224Z,42.41
2023-04-20T11:23:05.956Z,42.31
2023-04-20T11:25:33.815Z,41.99
2023-04-20T11:28:08.631Z,41.29
2023-04-20T11:30:41.361Z,41.54
2023-04-20T11:33:09.738Z,41.56
2023-04-20T11:35:38.405Z,42.33
2023-04-20T11:38:06.333Z,42.05
2023-04-20T11:40:34.155Z,41.74
2023-04-20T11:43:02.180Z,41.77
2023-04-20T11:45:35.194Z,41.20
2023-04-20T11:48:06.359Z,40.82
2023-04-20T11:50:34.209Z,40.35
2023-04-20T11:53:02.331Z,40.27
2023-04-20T11:55:30.131Z,40.06
2023-04-20T11:57:57.886Z,40.63
2023-04-20T12:00:25.915Z,41.41
2023-04-20T12:02:53.938Z,42.41
2023-04-20T12:05:23.312Z,41.90
2023-04-20T12:07:51.237Z,42.81
2023-04-20T12:10:18.967Z,45.58
2023-04-20T12:12:46.890Z,46.04
2023-04-20T12:15:15.000Z,46.07
2023-04-20T12:17:43.032Z,45.24
2023-04-20T12:20:12.304Z,45.38
2023-04-20T12:22:42.007Z,46.19
2023-04-20T12:25:10.314Z,47.23
2023-04-20T12:27:38.398Z,48.36
2023-04-20T12:30:09.362Z,49.77
2023-04-20T12:32:37.302Z,50.65
2023-04-20T12:35:05.550Z,50.66
2023-04-20T12:37:33.734Z,52.64
2023-04-20T12:40:06.606Z,54.61
2023-04-20T12:42:34.556Z,50.81
2023-04-20T12:45:02.361Z,53.45
2023-04-20T12:47:30.643Z,48.68
2023-04-20T12:49:58.660Z,46.73
2023-04-20T12:52:26.705Z,47.62
2023-04-20T12:54:54.658Z,47.84
2023-04-20T12:57:23.996Z,47.01
2023-04-20T12:59:52.097Z,48.15
2023-04-20T13:02:20.317Z,52.18
2023-04-20T13:04:48.431Z,54.30
2023-04-20T13:07:16.269Z,56.70
2023-04-20T13:09:44.249Z,57.82
2023-04-20T13:12:12.598Z,57.42
2023-04-20T13:14:41.720Z,58.03
2023-04-20T13:17:09.812Z,57.75
2023-04-20T13:19:37.712Z,59.00
2023-04-20T13:22:06.665Z,57.24
2023-04-20T13:24:34.585Z,55.72
2023-04-20T13:27:02.498Z,57.74
2023-04-20T13:29:30.538Z,55.52
2023-04-20T13:31:59.806Z,56.88
2023-04-20T13:34:27.827Z,56.81
2023-04-20T13:36:55.947Z,55.76
2023-04-20T13:39:23.872Z,52.08
2023-04-20T13:41:51.765Z,52.01
2023-04-20T13:44:20.261Z,55.34
2023-04-20T13:46:49.015Z,53.54
2023-04-20T13:49:18.512Z,54.80
2023-04-20T13:51:46.292Z,56.89
2023-04-20T13:54:14.322Z,56.57
2023-04-20T13:56:42.301Z,56.58
2023-04-20T13:59:10.678Z,54.98
2023-04-20T14:01:38.954Z,54.97
2023-04-20T14:04:07.181Z,56.74
2023-04-20T14:06:36.492Z,52.25
2023-04-20T14:09:04.433Z,52.12
2023-04-20T14:11:32.666Z,54.60
2023-04-20T14:14:00.482Z,54.89
2023-04-20T14:16:28.624Z,52.87
2023-04-20T14:18:56.875Z,54.34
2023-04-20T14:21:24.667Z,55.39
2023-04-20T14:23:55.281Z,56.50
2023-04-20T14:26:23.154Z,55.40
2023-04-20T14:28:52.602Z,54.38
2023-04-20T14:31:20.742Z,53.56
2023-04-20T14:33:48.576Z,54.83
2023-04-20T14:36:16.272Z,55.55
2023-04-20T14:38:44.279Z,57.15
2023-04-20T14:41:13.563Z,58.27
2023-04-20T14:43:41.408Z,59.12
2023-04-20T14:46:09.890Z,60.47
2023-04-20T14:48:38.176Z,61.10
2023-04-20T14:51:06.390Z,60.00
2023-04-20T14:53:34.635Z,60.44
2023-04-20T14:56:03.261Z,59.76
2023-04-20T14:58:32.534Z,62.33
2023-04-20T15:01:00.809Z,63.61
2023-04-20T15:03:28.937Z,64.45
2023-04-20T15:06:01.389Z,63.52
2023-04-20T15:08:29.337Z,62.83
2023-04-20T15:10:57.423Z,63.32
2023-04-20T15:13:25.787Z,64.56
2023-04-20T15:15:55.477Z,61.52
2023-04-20T15:18:23.490Z,61.64
2023-04-20T15:20:52.336Z,64.53
2023-04-20T15:23:20.346Z,64.00
2023-04-20T15:25:48.312Z,63.79
2023-04-20T15:28:16.651Z,65.27
2023-04-20T15:30:44.791Z,63.15
2023-04-20T15:33:14.143Z,58.30
2023-04-20T15:35:42.244Z,58.06
2023-04-20T15:38:10.135Z,60.18
2023-04-20T15:40:38.768Z,60.82
2023-04-20T15:43:07.133Z,60.05
2023-04-20T15:45:35.051Z,58.09
2023-04-20T15:48:03.004Z,58.00
2023-04-20T15:50:32.253Z,59.22
2023-04-20T15:53:00.480Z,58.60
2023-04-20T15:55:29.157Z,59.79
2023-04-20T15:58:00.542Z,60.42
2023-04-20T16:00:28.672Z,60.54
2023-04-20T16:02:56.606Z,60.03
2023-04-20T16:05:24.910Z,61.14
2023-04-20T16:07:54.742Z,60.35
2023-04-20T16:10:23.679Z,60.17
2023-04-20T16:12:51.816Z,59.93
2023-04-20T16:15:20.098Z,60.96
2023-04-20T16:17:47.995Z,61.27
2023-04-20T16:20:16.065Z,63.09
2023-04-20T16:22:44.026Z,62.53
2023-04-20T16:25:22.495Z,61.08
2023-04-20T16:27:50.975Z,60.97
2023-04-20T16:30:18.931Z,61.08
2023-04-20T16:32:47.010Z,60.86
2023-04-20T16:35:15.050Z,62.07
2023-04-20T16:37:42.887Z,61.91
2023-04-20T16:40:11.613Z,60.37
2023-04-20T16:42:41.001Z,61.81
2023-04-20T16:45:09.482Z,61.86
2023-04-20T16:47:37.422Z,63.39
2023-04-20T16:50:07.639Z,64.01
2023-04-20T16:52:35.685Z,64.09
2023-04-20T16:55:04.004Z,64.84
2023-04-20T16:57:32.508Z,64.61
2023-04-20T17:00:01.824Z,64.92
2023-04-20T17:02:33.128Z,66.09
2023-04-20T17:05:01.271Z,65.97
2023-04-20T17:07:29.433Z,64.78
2023-04-20T17:09:57.427Z,65.60
2023-04-20T17:12:25.453Z,66.55
2023-04-20T17:14:53.359Z,67.25
2023-04-20T17:17:22.727Z,67.89
2023-04-20T17:19:50.651Z,67.90
2023-04-20T17:22:18.523Z,67.82
2023-04-20T17:24:46.472Z,68.97
2023-04-20T17:27:16.042Z,68.18
2023-04-20T17:29:44.961Z,68.34
2023-04-20T17:32:13.287Z,68.64
2023-04-20T17:34:48.156Z,68.57
2023-04-20T17:37:16.663Z,69.66
2023-04-20T17:39:44.831Z,69.93
2023-04-20T17:42:13.322Z,71.13
2023-04-20T17:44:41.423Z,70.39
2023-04-20T17:47:10.315Z,70.16
2023-04-20T17:49:41.194Z,70.14
2023-04-20T17:52:12.626Z,70.96
2023-04-20T17:54:40.566Z,71.04
2023-04-20T17:57:09.088Z,71.23
2023-04-20T17:59:37.032Z,71.00
2023-04-20T18:02:05.150Z,70.40
2023-04-20T18:04:33.456Z,71.78
2023-04-20T18:07:01.505Z,70.79
2023-04-20T18:09:30.819Z,70.99
2023-04-20T18:11:58.799Z,72.16
2023-04-20T18:14:27.197Z,73.17
2023-04-20T18:16:56.061Z,73.87
2023-04-20T18:19:23.904Z,70.64
2023-04-20T18:21:51.983Z,71.09
2023-04-20T18:24:20.046Z,71.60
2023-04-20T18:26:49.477Z,71.08
2023-04-20T18:29:17.414Z,71.96
2023-04-20T18:31:46.479Z,72.72
2023-04-20T18:34:16.194Z,73.00
2023-04-20T18:36:44.226Z,74.34
2023-04-20T18:39:12.017Z,73.08
2023-04-20T18:41:39.864Z,73.22
2023-04-20T18:44:09.146Z,73.16
2023-04-20T18:46:37.095Z,73.93
2023-04-20T18:49:04.928Z,74.04
2023-04-20T18:51:33.366Z,76.04
2023-04-20T18:54:01.369Z,76.79
2023-04-20T18:56:29.290Z,78.39
2023-04-20T18:58:59.246Z,78.61
2023-04-20T19:01:28.674Z,78.57
2023-04-20T19:03:56.917Z,79.26
2023-04-20T19:06:25.173Z,79.72
2023-04-20T19:08:53.061Z,80.76
2023-04-20T19:11:20.941Z,80.46
2023-04-20T19:13:48.804Z,81.53
2023-04-20T19:16:17.023Z,81.74
2023-04-20T19:18:48.384Z,82.84
2023-04-20T19:21:16.483Z,82.51
2023-04-20T19:23:44.519Z,83.57
2023-04-20T19:26:12.411Z,83.71
2023-04-20T19:28:40.754Z,84.27
2023-04-20T19:31:10.887Z,84.47
2023-04-20T19:33:38.959Z,85.33
2023-04-20T19:36:08.573Z,85.66
2023-04-20T19:38:38.671Z,86.68
2023-04-20T19:41:07.410Z,86.43
2023-04-20T19:43:36.301Z,86.95
2023-04-20T19:46:04.792Z,87.12
2023-04-20T19:48:32.664Z,87.36
2023-04-20T19:51:01.327Z,87.38
2023-04-20T19:53:30.722Z,87.18
2023-04-20T19:55:58.650Z,87.28
2023-04-20T19:58:26.576Z,87.63
2023-04-20T20:00:54.678Z,87.57
2023-04-20T20:03:23.289Z,88.15
2023-04-20T20:05:51.608Z,88.14
2023-04-20T20:08:19.460Z,88.56
2023-04-20T20:10:48.704Z,89.05
2023-04-20T20:13:16.905Z,88.69
2023-04-20T20:15:45.353Z,89.10
2023-04-20T20:18:14.316Z,89.51
2023-04-20T20:20:42.269Z,89.04
2023-04-20T20:23:10.291Z,89.38
2023-04-20T20:25:38.222Z,89.87
2023-04-20T20:28:07.525Z,89.59
2023-04-20T20:30:35.419Z,89.59
2023-04-20T20:33:03.858Z,90.49
2023-04-20T20:35:33.312Z,90.67
2023-04-20T20:38:01.379Z,90.63
2023-04-20T20:40:29.143Z,90.78
2023-04-20T20:42:57.513Z,90.84
2023-04-20T20:45:27.821Z,90.50
2023-04-20T20:47:55.730Z,90.41
2023-04-20T20:50:23.911Z,90.95
2023-04-20T20:52:51.783Z,91.10
2023-04-20T20:55:19.691Z,90.37
2023-04-20T20:57:47.703Z,91.14
2023-04-20T21:00:16.182Z,90.74
2023-04-20T21:02:45.861Z,91.32
2023-04-20T21:05:14.150Z,91.74
2023-04-20T21:07:42.465Z,91.58
2023-04-20T21:10:11.908Z,91.70
2023-04-20T21:12:39.980Z,91.70
2023-04-20T21:15:10.138Z,92.21
2023-04-20T21:17:37.965Z,91.90
2023-04-20T21:20:09.558Z,92.35
2023-04-20T21:22:37.587Z,92.73
2023-04-20T21:25:06.387Z,92.40
2023-04-20T21:27:34.335Z,92.53
2023-04-20T21:30:02.129Z,92.79
2023-04-20T21:32:30.064Z,92.43
2023-04-20T21:34:57.930Z,93.29
2023-04-20T21:37:27.172Z,93.21
2023-04-20T21:39:55.133Z,93.13
2023-04-20T21:42:22.907Z,93.56
2023-04-20T21:44:50.760Z,93.46
2023-04-20T21:47:18.784Z,93.80
2023-04-20T21:49:46.524Z,93.32
2023-04-20T21:52:14.310Z,92.68
2023-04-20T21:54:43.486Z,93.12
2023-04-20T21:57:11.346Z,92.50
2023-04-20T21:59:39.129Z,92.91
2023-04-20T22:02:07.133Z,92.80
2023-04-20T22:04:35.173Z,92.69
2023-04-20T22:07:03.160Z,92.68
2023-04-20T22:09:31.204Z,93.17
2023-04-20T22:12:02.051Z,93.13
2023-04-20T22:14:30.258Z,93.63
2023-04-20T22:16:58.028Z,93.53
2023-04-20T22:19:25.973Z,94.18
2023-04-20T22:21:53.897Z,94.38
2023-04-20T22:24:21.653Z,94.44
2023-04-20T22:26:49.475Z,94.35
2023-04-20T22:29:19.002Z,94.37
2023-04-20T22:31:47.149Z,94.33
2023-04-20T22:34:15.032Z,94.58
2023-04-20T22:36:42.763Z,94.60
2023-04-20T22:39:10.839Z,94.79
2023-04-20T22:41:38.706Z,94.80
2023-04-20T22:44:06.696Z,95.50
2023-04-20T22:46:35.868Z,95.16
2023-04-20T22:49:04.210Z,95.38
2023-04-20T22:51:31.946Z,94.98
2023-04-20T22:54:01.013Z,94.93
2023-04-20T22:56:29.465Z,94.99
2023-04-20T22:58:57.218Z,94.11
2023-04-20T23:01:25.286Z,93.99
2023-04-20T23:03:54.554Z,93.81
2023-04-20T23:06:22.814Z,94.23
2023-04-20T23:08:50.721Z,94.74
2023-04-20T23:11:18.874Z,95.02
2023-04-20T23:13:47.839Z,94.97
2023-04-20T23:16:15.637Z,94.68
2023-04-20T23:18:43.324Z,95.30
2023-04-20T23:21:13.870Z,95.44
2023-04-20T23:23:41.654Z,95.20
2023-04-20T23:26:09.671Z,95.01
2023-04-20T23:28:37.523Z,95.11
2023-04-20T23:31:05.468Z,95.58
2023-04-20T23:33:33.291Z,95.60
2023-04-20T23:36:01.034Z,94.69
2023-04-20T23:38:30.205Z,94.01
2023-04-20T23:40:57.964Z,94.25
2023-04-20T23:43:25.767Z,95.20
2023-04-20T23:45:53.570Z,95.71
2023-04-20T23:48:21.288Z,95.71
2023-04-20T23:50:49.827Z,95.34
2023-04-20T23:53:17.640Z,95.87
2023-04-20T23:55:51.782Z,96.47
2023-04-20T23:58:19.577Z,96.60
